Sutton, Canada
Current Conditions -  °F | °C
As of 9:55 PM on Tuesday 25 Nov 2014 (Local Time) from KEFK Reporting Station
Overcast Overcast  
Wind Chill: 30°   Ceiling: 6000
Heat Index: 40°   Visibility: 10mi
Dew Point: 27°   Wind: 20mph
Humidity: 59%   Direction: 240°WSW
Pressure: 30"   Gusts: 33mph
Location:  45.11°N, 72.62°W
Report Text: KEFK 260255Z AUTO 24017G29KT 10SM SCT043 SCT050 OVC060 04/M03 A3000 RMK AO2 T00441030
Loading
Personal Weather Stations






























Interactive Weather Map New forecast layout! Learn more

10-Day Weather Forecast

Advertisements
Track Severe Weather on mobile